createdAt,value
2023-05-04T00:01:11.809Z,51.83
2023-05-04T00:03:40.811Z,51.73
2023-05-04T00:06:09.827Z,51.61
2023-05-04T00:08:38.718Z,51.53
2023-05-04T00:11:07.558Z,51.48
2023-05-04T00:13:36.228Z,51.45
2023-05-04T00:16:05.466Z,51.37
2023-05-04T00:18:34.198Z,51.56
2023-05-04T00:21:02.898Z,51.50
2023-05-04T00:23:31.557Z,51.48
2023-05-04T00:26:00.939Z,52.03
2023-05-04T00:28:29.613Z,51.86
2023-05-04T00:30:58.219Z,51.72
2023-05-04T00:33:26.940Z,51.77
2023-05-04T00:35:55.735Z,51.84
2023-05-04T00:38:24.504Z,51.79
2023-05-04T00:40:53.134Z,51.88
2023-05-04T00:43:21.844Z,51.80
2023-05-04T00:45:50.555Z,51.99
2023-05-04T00:48:19.325Z,52.22
2023-05-04T00:50:47.986Z,52.26
2023-05-04T00:53:16.623Z,52.35
2023-05-04T00:55:45.387Z,52.46
2023-05-04T00:58:14.333Z,52.90
2023-05-04T01:00:43.165Z,52.97
2023-05-04T01:03:11.941Z,52.87
2023-05-04T01:05:49.420Z,53.45
2023-05-04T01:08:26.734Z,53.81
2023-05-04T01:11:19.945Z,53.57
2023-05-04T01:13:51.505Z,54.04
2023-05-04T01:16:20.983Z,54.32
2023-05-04T01:18:50.256Z,54.09
2023-05-04T01:21:18.986Z,54.08
2023-05-04T01:23:47.775Z,54.29
2023-05-04T01:26:22.239Z,54.32
2023-05-04T01:29:02.657Z,54.40
2023-05-04T01:31:34.443Z,54.64
2023-05-04T01:34:03.822Z,54.53
2023-05-04T01:36:33.413Z,54.68
2023-05-04T01:39:04.175Z,54.34
2023-05-04T01:41:35.031Z,55.13
2023-05-04T01:44:04.969Z,54.73
2023-05-04T01:46:34.024Z,55.04
2023-05-04T01:49:02.695Z,55.28
2023-05-04T01:51:31.363Z,55.46
2023-05-04T01:54:00.100Z,55.69
2023-05-04T01:56:28.801Z,55.79
2023-05-04T01:58:57.538Z,55.70
2023-05-04T02:01:26.273Z,55.61
2023-05-04T02:03:55.165Z,55.72
2023-05-04T02:06:23.993Z,55.70
2023-05-04T02:08:52.679Z,55.99
2023-05-04T02:11:21.825Z,56.05
2023-05-04T02:13:50.533Z,56.19
2023-05-04T02:16:19.246Z,56.13
2023-05-04T02:18:47.974Z,56.22
2023-05-04T02:21:17.628Z,56.30
2023-05-04T02:23:46.368Z,55.92
2023-05-04T02:26:15.187Z,56.31
2023-05-04T02:28:43.920Z,56.28
2023-05-04T02:31:12.727Z,56.20
2023-05-04T02:33:41.399Z,56.47
2023-05-04T02:36:10.292Z,56.43
2023-05-04T02:38:39.006Z,56.63
2023-05-04T02:41:07.704Z,56.58
2023-05-04T02:43:36.381Z,56.68
2023-05-04T02:46:05.083Z,56.79
2023-05-04T02:48:33.888Z,56.63
2023-05-04T02:51:03.751Z,56.94
2023-05-04T02:53:32.410Z,56.99
2023-05-04T02:56:01.050Z,57.26
2023-05-04T02:58:29.845Z,56.83
2023-05-04T03:00:58.572Z,57.19
2023-05-04T03:03:27.348Z,57.57
2023-05-04T03:05:56.019Z,57.91
2023-05-04T03:08:24.825Z,58.16
2023-05-04T03:10:53.497Z,58.42
2023-05-04T03:13:22.202Z,58.83
2023-05-04T03:15:50.956Z,59.14
2023-05-04T03:18:19.814Z,59.59
2023-05-04T03:20:49.052Z,59.79
2023-05-04T03:23:19.908Z,60.10
2023-05-04T03:25:49.085Z,60.66
2023-05-04T03:28:18.023Z,60.92
2023-05-04T03:30:46.810Z,61.72
2023-05-04T03:33:15.857Z,62.19
2023-05-04T03:35:44.808Z,62.12
2023-05-04T03:38:13.813Z,62.55
2023-05-04T03:40:45.477Z,62.16
2023-05-04T03:43:14.852Z,62.40
2023-05-04T03:45:43.549Z,61.58
2023-05-04T03:48:12.268Z,61.11
2023-05-04T03:50:40.943Z,61.04
2023-05-04T03:53:10.167Z,60.94
2023-05-04T03:55:39.208Z,60.63
2023-05-04T03:58:07.924Z,61.00
2023-05-04T04:00:36.701Z,61.15
2023-05-04T04:03:10.707Z,61.22
2023-05-04T04:05:39.733Z,60.19
2023-05-04T04:08:08.528Z,59.83
2023-05-04T04:10:37.285Z,60.10
2023-05-04T04:13:06.083Z,60.23
2023-05-04T04:15:34.882Z,59.97
2023-05-04T04:18:03.626Z,59.70
2023-05-04T04:20:33.349Z,59.90
2023-05-04T04:23:02.147Z,59.60
2023-05-04T04:25:31.795Z,59.93
2023-05-04T04:28:00.517Z,59.14
2023-05-04T04:30:29.991Z,58.89
2023-05-04T04:32:58.713Z,59.04
2023-05-04T04:35:27.651Z,58.62
2023-05-04T04:37:56.340Z,58.47
2023-05-04T04:40:25.283Z,58.30
2023-05-04T04:42:53.943Z,58.54
2023-05-04T04:45:22.703Z,58.25
2023-05-04T04:47:51.651Z,57.71
2023-05-04T04:50:20.666Z,57.65
2023-05-04T04:52:49.366Z,57.73
2023-05-04T04:55:18.312Z,57.72
2023-05-04T04:57:47.203Z,57.28
2023-05-04T05:00:17.242Z,57.31
2023-05-04T05:02:46.006Z,57.11
2023-05-04T05:05:14.894Z,57.21
2023-05-04T05:07:43.656Z,56.71
2023-05-04T05:10:12.712Z,56.58
2023-05-04T05:12:41.705Z,57.07
2023-05-04T05:15:10.979Z,56.39
2023-05-04T05:17:39.762Z,56.09
2023-05-04T05:20:12.174Z,55.99
2023-05-04T05:22:41.568Z,55.48
2023-05-04T05:25:12.466Z,55.06
2023-05-04T05:27:41.368Z,54.74
2023-05-04T05:30:11.370Z,54.37
2023-05-04T05:32:40.131Z,54.38
2023-05-04T05:35:09.734Z,53.80
2023-05-04T05:37:38.511Z,53.15
2023-05-04T05:40:08.249Z,53.50
2023-05-04T05:42:37.286Z,53.13
2023-05-04T05:45:08.164Z,53.49
2023-05-04T05:47:37.898Z,53.37
2023-05-04T05:50:08.092Z,53.06
2023-05-04T05:52:36.899Z,53.10
2023-05-04T05:55:06.126Z,52.87
2023-05-04T05:57:34.871Z,52.81
2023-05-04T06:00:05.721Z,52.71
2023-05-04T06:02:40.854Z,52.50
2023-05-04T06:05:10.646Z,52.58
2023-05-04T06:07:39.411Z,52.46
2023-05-04T06:10:09.095Z,52.53
2023-05-04T06:12:38.178Z,52.44
2023-05-04T06:15:08.442Z,51.90
2023-05-04T06:17:37.211Z,51.95
2023-05-04T06:20:09.705Z,51.83
2023-05-04T06:22:38.553Z,52.06
2023-05-04T06:25:08.378Z,51.89
2023-05-04T06:27:37.692Z,51.38
2023-05-04T06:30:08.265Z,50.91
2023-05-04T06:32:37.415Z,50.56
2023-05-04T06:35:09.792Z,50.42
2023-05-04T06:37:38.453Z,50.27
2023-05-04T06:40:08.499Z,49.24
2023-05-04T06:42:37.509Z,48.93
2023-05-04T06:45:07.217Z,49.11
2023-05-04T06:47:37.791Z,49.37
2023-05-04T06:50:12.020Z,48.88
2023-05-04T06:52:43.999Z,48.68
2023-05-04T06:55:13.882Z,48.54
2023-05-04T06:57:42.599Z,48.72
2023-05-04T07:00:12.174Z,49.01
2023-05-04T07:02:41.096Z,48.86
2023-05-04T07:05:10.462Z,48.74
2023-05-04T07:07:39.791Z,48.68
2023-05-04T07:10:08.973Z,50.16
2023-05-04T07:12:37.886Z,49.89
2023-05-04T07:15:07.600Z,49.31
2023-05-04T07:17:40.460Z,48.64
2023-05-04T08:31:40.474Z,56.52
2023-05-04T08:34:09.444Z,56.41
2023-05-04T08:36:38.482Z,56.12
2023-05-04T08:39:07.669Z,55.27
2023-05-04T08:41:41.226Z,54.56
2023-05-04T08:44:11.676Z,54.14
2023-05-04T08:46:41.672Z,53.53
2023-05-04T08:49:13.534Z,53.82
2023-05-04T08:51:43.894Z,53.68
2023-05-04T08:54:13.006Z,53.33
2023-05-04T08:56:43.164Z,52.66
2023-05-04T08:59:21.695Z,52.38
2023-05-04T09:01:56.713Z,52.32
2023-05-04T09:04:29.322Z,51.64
2023-05-04T09:06:58.874Z,51.02
2023-05-04T09:09:29.673Z,50.96
2023-05-04T09:11:59.243Z,50.76
2023-05-04T09:14:35.969Z,50.68
2023-05-04T09:17:14.941Z,50.47
2023-05-04T09:19:57.812Z,50.97
2023-05-04T09:22:28.739Z,51.74
2023-05-04T09:25:12.823Z,51.10
2023-05-04T09:27:42.847Z,51.22
2023-05-04T09:30:13.227Z,51.33
2023-05-04T09:32:50.109Z,51.35
2023-05-04T09:35:33.501Z,51.66
2023-05-04T09:38:04.402Z,51.86
2023-05-04T09:40:41.195Z,51.93
2023-05-04T09:43:11.200Z,51.22
2023-05-04T09:45:45.588Z,50.32
2023-05-04T09:48:27.085Z,49.71
2023-05-04T09:51:01.653Z,49.05
2023-05-04T09:53:31.851Z,48.71
2023-05-04T09:56:16.819Z,47.78
2023-05-04T09:58:47.384Z,47.32
2023-05-04T10:01:17.123Z,47.68
2023-05-04T10:03:46.678Z,48.29
2023-05-04T10:06:16.689Z,48.02
2023-05-04T10:08:45.885Z,47.43
2023-05-04T10:11:18.995Z,47.36
2023-05-04T10:13:49.918Z,47.24
2023-05-04T10:16:25.062Z,46.46
2023-05-04T10:19:21.828Z,45.95
2023-05-04T10:23:00.994Z,45.55
2023-05-04T10:26:17.373Z,46.48
2023-05-04T10:29:23.739Z,46.21
2023-05-04T10:31:53.778Z,44.73
2023-05-04T10:34:31.924Z,44.06
2023-05-04T10:37:02.332Z,44.88
2023-05-04T10:39:33.464Z,45.13
2023-05-04T10:42:07.836Z,44.79
2023-05-04T10:44:50.356Z,45.11
2023-05-04T10:47:41.096Z,46.24
2023-05-04T10:50:16.194Z,45.71
2023-05-04T10:52:50.832Z,45.56
2023-05-04T10:55:24.044Z,45.33
2023-05-04T10:57:58.240Z,45.20
2023-05-04T11:00:38.481Z,45.75
2023-05-04T11:03:08.345Z,45.82
2023-05-04T11:05:41.921Z,44.87
2023-05-04T11:08:25.010Z,44.68
